sensor_id;sensor_type;location;lat;lon;timestamp;pressure;altitude;pressure_sealevel;temperature;humidity
3082;BME280;1551;51.046;7.010;2022-08-11T00:00:01;101510.81;;;23.68;47.21
3082;BME280;1551;51.046;7.010;2022-08-11T00:02:54;101505.78;;;23.65;47.58
3082;BME280;1551;51.046;7.010;2022-08-11T00:05:49;101504.16;;;23.63;47.72
3082;BME280;1551;51.046;7.010;2022-08-11T00:08:39;101496.63;;;23.57;47.88
3082;BME280;1551;51.046;7.010;2022-08-11T00:11:35;101493.31;;;23.53;48.13
3082;BME280;1551;51.046;7.010;2022-08-11T00:14:27;101500.81;;;23.76;47.79
3082;BME280;1551;51.046;7.010;2022-08-11T00:17:16;101490.47;;;23.58;47.97
3082;BME280;1551;51.046;7.010;2022-08-11T00:20:12;101500.84;;;23.59;48.17
3082;BME280;1551;51.046;7.010;2022-08-11T00:23:07;101495.09;;;23.53;48.12
3082;BME280;1551;51.046;7.010;2022-08-11T00:25:57;101503.41;;;23.61;47.79
3082;BME280;1551;51.046;7.010;2022-08-11T00:28:46;101491.00;;;23.47;47.86
3082;BME280;1551;51.046;7.010;2022-08-11T00:31:36;101495.63;;;23.42;47.75
3082;BME280;1551;51.046;7.010;2022-08-11T00:34:27;101498.91;;;23.11;48.76
3082;BME280;1551;51.046;7.010;2022-08-11T00:37:21;101494.00;;;22.87;49.33
3082;BME280;1551;51.046;7.010;2022-08-11T00:40:17;101487.06;;;22.69;49.56
3082;BME280;1551;51.046;7.010;2022-08-11T00:53:09;101503.13;;;22.59;49.61
3082;BME280;1551;51.046;7.010;2022-08-11T01:02:38;101501.38;;;22.96;48.14
3082;BME280;1551;51.046;7.010;2022-08-11T01:15:35;101489.94;;;22.63;48.41
3082;BME280;1551;51.046;7.010;2022-08-11T01:19:07;101498.91;;;22.38;49.04
3082;BME280;1551;51.046;7.010;2022-08-11T01:38:41;101491.63;;;22.26;51.04
3082;BME280;1551;51.046;7.010;2022-08-11T01:48:33;101490.56;;;22.30;51.64
3082;BME280;1551;51.046;7.010;2022-08-11T01:55:10;101488.44;;;22.01;51.51
3082;BME280;1551;51.046;7.010;2022-08-11T02:11:25;101499.06;;;21.56;53.24
3082;BME280;1551;51.046;7.010;2022-08-11T02:14:30;101501.22;;;21.67;52.91
3082;BME280;1551;51.046;7.010;2022-08-11T02:17:46;101498.16;;;21.98;52.29
3082;BME280;1551;51.046;7.010;2022-08-11T02:20:44;101500.56;;;22.02;51.33
3082;BME280;1551;51.046;7.010;2022-08-11T02:24:03;101502.38;;;21.60;52.63
3082;BME280;1551;51.046;7.010;2022-08-11T02:27:05;101500.28;;;22.08;52.18
3082;BME280;1551;51.046;7.010;2022-08-11T02:30:05;101500.56;;;22.39;51.75
3082;BME280;1551;51.046;7.010;2022-08-11T02:33:13;101495.22;;;22.42;51.72
3082;BME280;1551;51.046;7.010;2022-08-11T02:36:16;101504.25;;;22.35;51.26
3082;BME280;1551;51.046;7.010;2022-08-11T02:39:10;101495.88;;;22.47;51.42
3082;BME280;1551;51.046;7.010;2022-08-11T02:42:15;101505.25;;;22.70;50.99
3082;BME280;1551;51.046;7.010;2022-08-11T02:52:35;101499.88;;;22.17;51.06
3082;BME280;1551;51.046;7.010;2022-08-11T03:02:25;101502.63;;;22.70;49.97
3082;BME280;1551;51.046;7.010;2022-08-11T03:11:14;101504.31;;;22.90;49.77
3082;BME280;1551;51.046;7.010;2022-08-11T03:17:41;101501.78;;;23.05;49.37
3082;BME280;1551;51.046;7.010;2022-08-11T03:24:17;101507.41;;;23.15;49.33
3082;BME280;1551;51.046;7.010;2022-08-11T03:27:27;101502.06;;;23.18;49.14
3082;BME280;1551;51.046;7.010;2022-08-11T03:30:22;101490.84;;;23.16;49.18
3082;BME280;1551;51.046;7.010;2022-08-11T03:33:18;101500.44;;;23.15;49.08
3082;BME280;1551;51.046;7.010;2022-08-11T03:43:53;101494.25;;;23.16;49.10
3082;BME280;1551;51.046;7.010;2022-08-11T03:53:17;101503.13;;;23.14;49.01
3082;BME280;1551;51.046;7.010;2022-08-11T03:56:56;101499.66;;;22.78;48.76
3082;BME280;1551;51.046;7.010;2022-08-11T04:13:31;101490.09;;;20.35;56.15
3082;BME280;1551;51.046;7.010;2022-08-11T04:16:46;101490.13;;;20.33;56.08
3082;BME280;1551;51.046;7.010;2022-08-11T04:30:13;101501.88;;;19.97;57.50
3082;BME280;1551;51.046;7.010;2022-08-11T04:53:18;101505.66;;;19.62;57.87
3082;BME280;1551;51.046;7.010;2022-08-11T04:56:30;101505.66;;;19.62;58.26
3082;BME280;1551;51.046;7.010;2022-08-11T05:06:32;101498.59;;;19.90;56.46
3082;BME280;1551;51.046;7.010;2022-08-11T05:12:49;101502.16;;;20.13;55.18
3082;BME280;1551;51.046;7.010;2022-08-11T05:15:46;101511.28;;;20.24;54.61
3082;BME280;1551;51.046;7.010;2022-08-11T05:18:56;101511.78;;;20.34;54.62
3082;BME280;1551;51.046;7.010;2022-08-11T05:22:07;101518.47;;;20.41;54.84
3082;BME280;1551;51.046;7.010;2022-08-11T05:25:19;101516.44;;;20.49;55.72
3082;BME280;1551;51.046;7.010;2022-08-11T05:28:40;101512.84;;;20.51;56.54
3082;BME280;1551;51.046;7.010;2022-08-11T05:31:54;101520.25;;;20.62;56.84
3082;BME280;1551;51.046;7.010;2022-08-11T05:35:06;101525.00;;;20.74;56.64
3082;BME280;1551;51.046;7.010;2022-08-11T05:37:55;101533.78;;;20.93;55.80
3082;BME280;1551;51.046;7.010;2022-08-11T05:41:05;101530.06;;;20.99;55.97
3082;BME280;1551;51.046;7.010;2022-08-11T05:44:17;101518.50;;;21.07;55.14
3082;BME280;1551;51.046;7.010;2022-08-11T05:47:25;101540.44;;;21.22;53.94
3082;BME280;1551;51.046;7.010;2022-08-11T05:50:34;101531.22;;;21.35;53.36
3082;BME280;1551;51.046;7.010;2022-08-11T05:53:45;101535.78;;;21.50;52.53
3082;BME280;1551;51.046;7.010;2022-08-11T05:56:57;101536.72;;;21.69;51.57
3082;BME280;1551;51.046;7.010;2022-08-11T05:59:47;101536.28;;;21.80;51.42
3082;BME280;1551;51.046;7.010;2022-08-11T06:02:42;101528.13;;;21.87;51.16
3082;BME280;1551;51.046;7.010;2022-08-11T06:05:36;101533.09;;;21.94;51.17
3082;BME280;1551;51.046;7.010;2022-08-11T06:08:28;101542.22;;;22.04;50.57
3082;BME280;1551;51.046;7.010;2022-08-11T06:11:17;101536.38;;;22.17;49.58
3082;BME280;1551;51.046;7.010;2022-08-11T06:14:11;101531.31;;;22.33;49.18
3082;BME280;1551;51.046;7.010;2022-08-11T06:17:02;101537.69;;;22.46;49.57
3082;BME280;1551;51.046;7.010;2022-08-11T06:20:03;101531.06;;;22.57;48.42
3082;BME280;1551;51.046;7.010;2022-08-11T06:22:58;101532.84;;;22.76;47.86
3082;BME280;1551;51.046;7.010;2022-08-11T06:25:51;101530.41;;;22.90;47.71
3082;BME280;1551;51.046;7.010;2022-08-11T06:28:43;101536.53;;;23.24;48.11
3082;BME280;1551;51.046;7.010;2022-08-11T06:31:33;101527.75;;;23.61;47.08
3082;BME280;1551;51.046;7.010;2022-08-11T06:40:45;101532.25;;;24.09;45.93
3082;BME280;1551;51.046;7.010;2022-08-11T06:47:04;101535.94;;;24.69;44.89
3082;BME280;1551;51.046;7.010;2022-08-11T06:49:56;101539.44;;;24.85;43.55
3082;BME280;1551;51.046;7.010;2022-08-11T06:53:07;101517.25;;;25.06;42.76
3082;BME280;1551;51.046;7.010;2022-08-11T06:55:58;101528.75;;;25.49;41.89
3082;BME280;1551;51.046;7.010;2022-08-11T06:59:08;101535.66;;;25.80;40.78
3082;BME280;1551;51.046;7.010;2022-08-11T07:02:22;101530.03;;;26.00;40.30
3082;BME280;1551;51.046;7.010;2022-08-11T07:05:22;101533.94;;;26.23;40.18
3082;BME280;1551;51.046;7.010;2022-08-11T07:08:39;101543.38;;;26.53;39.75
3082;BME280;1551;51.046;7.010;2022-08-11T07:15:31;101535.25;;;27.11;38.84
3082;BME280;1551;51.046;7.010;2022-08-11T07:18:33;101543.50;;;27.32;38.24
3082;BME280;1551;51.046;7.010;2022-08-11T07:21:42;101534.31;;;27.64;37.35
3082;BME280;1551;51.046;7.010;2022-08-11T07:25:10;101534.13;;;27.92;36.13
3082;BME280;1551;51.046;7.010;2022-08-11T07:28:27;101538.84;;;28.38;35.78
3082;BME280;1551;51.046;7.010;2022-08-11T07:31:52;101532.84;;;28.48;33.97
3082;BME280;1551;51.046;7.010;2022-08-11T07:34:47;101527.31;;;28.51;33.72
3082;BME280;1551;51.046;7.010;2022-08-11T07:37:42;101520.66;;;28.71;32.91
3082;BME280;1551;51.046;7.010;2022-08-11T07:40:35;101531.31;;;28.57;33.16
3082;BME280;1551;51.046;7.010;2022-08-11T07:43:25;101519.31;;;28.89;32.85
3082;BME280;1551;51.046;7.010;2022-08-11T07:46:15;101527.22;;;29.13;32.27
3082;BME280;1551;51.046;7.010;2022-08-11T07:49:24;101521.81;;;29.38;31.92
3082;BME280;1551;51.046;7.010;2022-08-11T07:52:33;101525.84;;;29.66;31.85
3082;BME280;1551;51.046;7.010;2022-08-11T07:55:25;101520.97;;;29.94;31.13
3082;BME280;1551;51.046;7.010;2022-08-11T07:58:16;101523.50;;;30.07;31.36
3082;BME280;1551;51.046;7.010;2022-08-11T08:01:24;101522.19;;;30.35;31.18
3082;BME280;1551;51.046;7.010;2022-08-11T08:04:33;101523.63;;;30.93;30.09
3082;BME280;1551;51.046;7.010;2022-08-11T08:07:41;101527.88;;;31.16;29.10
3082;BME280;1551;51.046;7.010;2022-08-11T08:10:51;101525.34;;;31.14;29.14
3082;BME280;1551;51.046;7.010;2022-08-11T08:14:01;101526.25;;;31.04;29.00
3082;BME280;1551;51.046;7.010;2022-08-11T08:17:09;101524.66;;;31.33;28.05
3082;BME280;1551;51.046;7.010;2022-08-11T08:20:19;101524.13;;;31.50;28.11
3082;BME280;1551;51.046;7.010;2022-08-11T08:23:09;101529.56;;;31.49;28.00
3082;BME280;1551;51.046;7.010;2022-08-11T08:25:59;101524.50;;;31.66;27.59
3082;BME280;1551;51.046;7.010;2022-08-11T08:28:49;101527.28;;;31.65;27.70
3082;BME280;1551;51.046;7.010;2022-08-11T08:31:39;101529.78;;;32.17;27.49
3082;BME280;1551;51.046;7.010;2022-08-11T08:34:28;101524.66;;;32.25;27.32
3082;BME280;1551;51.046;7.010;2022-08-11T08:37:19;101536.13;;;32.35;27.66
3082;BME280;1551;51.046;7.010;2022-08-11T08:40:10;101539.34;;;32.39;26.75
3082;BME280;1551;51.046;7.010;2022-08-11T08:43:04;101522.53;;;32.49;26.91
3082;BME280;1551;51.046;7.010;2022-08-11T08:45:56;101526.16;;;32.58;26.58
3082;BME280;1551;51.046;7.010;2022-08-11T08:48:48;101532.59;;;32.55;25.88
3082;BME280;1551;51.046;7.010;2022-08-11T08:51:39;101534.44;;;32.74;26.36
3082;BME280;1551;51.046;7.010;2022-08-11T08:54:32;101534.84;;;32.70;25.74
3082;BME280;1551;51.046;7.010;2022-08-11T08:57:27;101532.06;;;33.00;26.74
3082;BME280;1551;51.046;7.010;2022-08-11T09:00:17;101535.59;;;33.39;25.89
3082;BME280;1551;51.046;7.010;2022-08-11T09:03:08;101540.59;;;33.32;24.83
3082;BME280;1551;51.046;7.010;2022-08-11T09:05:57;101536.16;;;33.23;25.69
3082;BME280;1551;51.046;7.010;2022-08-11T09:08:46;101542.44;;;33.32;25.17
3082;BME280;1551;51.046;7.010;2022-08-11T09:11:36;101539.06;;;33.30;24.94
3082;BME280;1551;51.046;7.010;2022-08-11T09:14:40;101531.66;;;32.95;25.13
3082;BME280;1551;51.046;7.010;2022-08-11T09:17:54;101536.16;;;33.13;25.35
3082;BME280;1551;51.046;7.010;2022-08-11T09:20:49;101530.09;;;33.50;25.02
3082;BME280;1551;51.046;7.010;2022-08-11T09:23:38;101533.47;;;33.61;25.12
3082;BME280;1551;51.046;7.010;2022-08-11T09:26:46;101527.66;;;33.85;25.29
3082;BME280;1551;51.046;7.010;2022-08-11T09:29:36;101532.97;;;33.85;25.03
3082;BME280;1551;51.046;7.010;2022-08-11T09:32:26;101525.38;;;34.00;24.41
3082;BME280;1551;51.046;7.010;2022-08-11T09:35:17;101534.16;;;34.10;24.04
3082;BME280;1551;51.046;7.010;2022-08-11T09:38:09;101520.63;;;33.93;24.31
3082;BME280;1551;51.046;7.010;2022-08-11T09:41:18;101524.81;;;34.06;23.35
3082;BME280;1551;51.046;7.010;2022-08-11T09:44:08;101522.84;;;34.08;23.91
3082;BME280;1551;51.046;7.010;2022-08-11T09:50:14;101521.00;;;34.35;22.94
3082;BME280;1551;51.046;7.010;2022-08-11T09:53:05;101516.78;;;34.70;22.49
3082;BME280;1551;51.046;7.010;2022-08-11T09:55:55;101522.25;;;34.86;22.63
3082;BME280;1551;51.046;7.010;2022-08-11T09:58:45;101521.25;;;35.22;22.24
3082;BME280;1551;51.046;7.010;2022-08-11T10:01:44;101516.66;;;35.75;22.27
3082;BME280;1551;51.046;7.010;2022-08-11T10:04:44;101505.72;;;35.35;23.53
3082;BME280;1551;51.046;7.010;2022-08-11T10:07:34;101504.84;;;36.04;21.53
3082;BME280;1551;51.046;7.010;2022-08-11T10:10:23;101517.53;;;36.18;21.79
3082;BME280;1551;51.046;7.010;2022-08-11T10:13:18;101508.38;;;36.12;20.99
3082;BME280;1551;51.046;7.010;2022-08-11T10:16:09;101514.22;;;36.58;20.98
3082;BME280;1551;51.046;7.010;2022-08-11T10:19:01;101506.53;;;36.71;20.83
3082;BME280;1551;51.046;7.010;2022-08-11T10:21:53;101496.22;;;36.76;21.22
3082;BME280;1551;51.046;7.010;2022-08-11T10:25:03;101493.00;;;36.56;20.84
3082;BME280;1551;51.046;7.010;2022-08-11T10:28:11;101495.75;;;37.12;20.50
3082;BME280;1551;51.046;7.010;2022-08-11T10:31:00;101496.22;;;37.48;20.95
3082;BME280;1551;51.046;7.010;2022-08-11T10:34:08;101483.88;;;38.02;19.78
3082;BME280;1551;51.046;7.010;2022-08-11T10:36:58;101496.78;;;38.29;19.01
3082;BME280;1551;51.046;7.010;2022-08-11T10:39:51;101490.28;;;38.24;19.05
3082;BME280;1551;51.046;7.010;2022-08-11T10:42:43;101487.47;;;38.17;18.79
3082;BME280;1551;51.046;7.010;2022-08-11T10:45:51;101478.31;;;38.12;19.26
3082;BME280;1551;51.046;7.010;2022-08-11T10:48:59;101479.41;;;38.25;18.91
3082;BME280;1551;51.046;7.010;2022-08-11T10:51:50;101484.34;;;38.44;19.37
3082;BME280;1551;51.046;7.010;2022-08-11T10:54:58;101487.34;;;38.64;18.24
3082;BME280;1551;51.046;7.010;2022-08-11T10:58:06;101488.19;;;38.65;18.53
3082;BME280;1551;51.046;7.010;2022-08-11T11:04:06;101470.94;;;39.12;18.06
3082;BME280;1551;51.046;7.010;2022-08-11T11:07:06;101468.94;;;39.29;18.39
3082;BME280;1551;51.046;7.010;2022-08-11T11:10:04;101458.69;;;39.47;18.24
3082;BME280;1551;51.046;7.010;2022-08-11T11:12:56;101455.00;;;39.48;18.03
3082;BME280;1551;51.046;7.010;2022-08-11T11:16:05;101464.41;;;39.44;18.00
3082;BME280;1551;51.046;7.010;2022-08-11T11:19:13;101439.63;;;39.28;17.89
3082;BME280;1551;51.046;7.010;2022-08-11T11:22:09;101449.38;;;39.43;17.74
3082;BME280;1551;51.046;7.010;2022-08-11T11:25:33;101444.94;;;38.98;18.58
3082;BME280;1551;51.046;7.010;2022-08-11T11:28:37;101434.63;;;39.10;17.90
3082;BME280;1551;51.046;7.010;2022-08-11T11:37:51;101425.13;;;39.80;17.64
3082;BME280;1551;51.046;7.010;2022-08-11T11:40:41;101432.56;;;40.14;17.84
3082;BME280;1551;51.046;7.010;2022-08-11T11:43:32;101415.25;;;40.17;18.20
3082;BME280;1551;51.046;7.010;2022-08-11T11:46:27;101424.69;;;40.48;17.53
3082;BME280;1551;51.046;7.010;2022-08-11T11:49:19;101420.81;;;40.15;16.72
3082;BME280;1551;51.046;7.010;2022-08-11T11:52:14;101411.25;;;40.27;17.07
3082;BME280;1551;51.046;7.010;2022-08-11T11:55:06;101403.50;;;40.39;17.05
3082;BME280;1551;51.046;7.010;2022-08-11T11:57:57;101400.50;;;39.92;17.25
3082;BME280;1551;51.046;7.010;2022-08-11T12:01:07;101409.38;;;39.92;17.45
3082;BME280;1551;51.046;7.010;2022-08-11T12:04:05;101398.41;;;39.72;16.91
3082;BME280;1551;51.046;7.010;2022-08-11T12:06:54;101400.94;;;39.74;16.89
3082;BME280;1551;51.046;7.010;2022-08-11T12:10:04;101386.03;;;39.71;17.35
3082;BME280;1551;51.046;7.010;2022-08-11T12:12:55;101393.53;;;39.76;17.29
3082;BME280;1551;51.046;7.010;2022-08-11T12:16:08;101386.38;;;39.83;17.25
3082;BME280;1551;51.046;7.010;2022-08-11T12:18:59;101393.16;;;40.15;17.05
3082;BME280;1551;51.046;7.010;2022-08-11T12:21:49;101386.34;;;40.40;17.14
3082;BME280;1551;51.046;7.010;2022-08-11T12:24:59;101384.34;;;40.21;17.24
3082;BME280;1551;51.046;7.010;2022-08-11T12:28:08;101373.63;;;39.56;16.29
3082;BME280;1551;51.046;7.010;2022-08-11T12:30:57;101366.66;;;39.40;16.38
3082;BME280;1551;51.046;7.010;2022-08-11T12:33:46;101360.25;;;39.12;17.93
3082;BME280;1551;51.046;7.010;2022-08-11T12:36:38;101360.38;;;39.33;17.09
3082;BME280;1551;51.046;7.010;2022-08-11T12:39:33;101362.09;;;39.55;16.83
3082;BME280;1551;51.046;7.010;2022-08-11T12:42:43;101360.09;;;39.28;17.70
3082;BME280;1551;51.046;7.010;2022-08-11T12:45:55;101349.00;;;39.46;18.25
3082;BME280;1551;51.046;7.010;2022-08-11T12:48:47;101354.38;;;38.42;17.81
3082;BME280;1551;51.046;7.010;2022-08-11T12:51:56;101343.97;;;38.47;17.68
3082;BME280;1551;51.046;7.010;2022-08-11T12:55:04;101337.06;;;38.75;17.98
3082;BME280;1551;51.046;7.010;2022-08-11T12:57:55;101340.81;;;38.43;18.60
3082;BME280;1551;51.046;7.010;2022-08-11T13:01:03;101334.59;;;38.66;18.25
3082;BME280;1551;51.046;7.010;2022-08-11T13:04:10;101329.97;;;38.60;18.57
3082;BME280;1551;51.046;7.010;2022-08-11T13:07:18;101329.28;;;38.95;17.67
3082;BME280;1551;51.046;7.010;2022-08-11T13:10:09;101322.03;;;38.51;18.08
3082;BME280;1551;51.046;7.010;2022-08-11T13:12:58;101321.38;;;38.64;18.05
3082;BME280;1551;51.046;7.010;2022-08-11T13:15:48;101318.84;;;38.33;18.13
3082;BME280;1551;51.046;7.010;2022-08-11T13:18:38;101323.94;;;38.43;18.30
3082;BME280;1551;51.046;7.010;2022-08-11T13:21:30;101329.72;;;38.09;18.54
3082;BME280;1551;51.046;7.010;2022-08-11T13:24:20;101316.03;;;38.04;18.34
3082;BME280;1551;51.046;7.010;2022-08-11T13:27:09;101316.16;;;38.11;17.99
3082;BME280;1551;51.046;7.010;2022-08-11T13:30:00;101311.31;;;37.53;18.24
3082;BME280;1551;51.046;7.010;2022-08-11T13:33:09;101300.94;;;37.58;19.60
3082;BME280;1551;51.046;7.010;2022-08-11T13:36:00;101300.50;;;37.77;19.75
3082;BME280;1551;51.046;7.010;2022-08-11T13:38:50;101293.34;;;37.69;19.31
3082;BME280;1551;51.046;7.010;2022-08-11T13:41:41;101295.31;;;37.83;19.54
3082;BME280;1551;51.046;7.010;2022-08-11T13:44:34;101294.22;;;37.93;19.17
3082;BME280;1551;51.046;7.010;2022-08-11T13:47:26;101297.63;;;38.32;18.60
3082;BME280;1551;51.046;7.010;2022-08-11T13:50:15;101294.16;;;38.23;19.07
3082;BME280;1551;51.046;7.010;2022-08-11T13:53:06;101278.66;;;37.96;19.00
3082;BME280;1551;51.046;7.010;2022-08-11T13:55:59;101286.66;;;37.96;18.51
3082;BME280;1551;51.046;7.010;2022-08-11T13:58:49;101287.19;;;37.38;18.55
3082;BME280;1551;51.046;7.010;2022-08-11T14:01:47;101275.75;;;37.52;19.58
3082;BME280;1551;51.046;7.010;2022-08-11T14:04:41;101272.13;;;37.06;19.93
3082;BME280;1551;51.046;7.010;2022-08-11T14:07:36;101275.25;;;37.10;20.06
3082;BME280;1551;51.046;7.010;2022-08-11T14:10:29;101269.09;;;37.48;18.84
3082;BME280;1551;51.046;7.010;2022-08-11T14:13:18;101275.47;;;37.70;18.78
3082;BME280;1551;51.046;7.010;2022-08-11T14:16:29;101271.66;;;37.64;19.54
3082;BME280;1551;51.046;7.010;2022-08-11T14:19:21;101258.28;;;37.34;19.18
3082;BME280;1551;51.046;7.010;2022-08-11T14:22:13;101254.09;;;37.00;20.05
3082;BME280;1551;51.046;7.010;2022-08-11T14:25:04;101249.78;;;36.99;19.19
3082;BME280;1551;51.046;7.010;2022-08-11T14:27:53;101246.47;;;36.81;20.19
3082;BME280;1551;51.046;7.010;2022-08-11T14:30:44;101241.53;;;36.54;19.72
3082;BME280;1551;51.046;7.010;2022-08-11T14:33:44;101237.53;;;36.42;18.90
3082;BME280;1551;51.046;7.010;2022-08-11T14:36:36;101239.38;;;36.33;19.23
3082;BME280;1551;51.046;7.010;2022-08-11T14:39:28;101231.53;;;36.40;19.62
3082;BME280;1551;51.046;7.010;2022-08-11T14:42:19;101234.41;;;36.22;19.81
3082;BME280;1551;51.046;7.010;2022-08-11T14:45:28;101233.53;;;35.81;19.62
3082;BME280;1551;51.046;7.010;2022-08-11T14:48:36;101231.88;;;35.88;19.69
3082;BME280;1551;51.046;7.010;2022-08-11T14:51:26;101217.84;;;35.62;20.07
3082;BME280;1551;51.046;7.010;2022-08-11T14:54:16;101229.03;;;35.82;20.44
3082;BME280;1551;51.046;7.010;2022-08-11T14:57:23;101230.19;;;35.87;19.75
3082;BME280;1551;51.046;7.010;2022-08-11T15:00:15;101215.19;;;35.62;20.15
3082;BME280;1551;51.046;7.010;2022-08-11T15:03:06;101227.19;;;35.58;20.57
3082;BME280;1551;51.046;7.010;2022-08-11T15:05:59;101218.69;;;35.63;20.88
3082;BME280;1551;51.046;7.010;2022-08-11T15:08:50;101222.13;;;35.47;20.32
3082;BME280;1551;51.046;7.010;2022-08-11T15:11:42;101206.97;;;35.40;20.35
3082;BME280;1551;51.046;7.010;2022-08-11T15:14:50;101200.59;;;35.24;21.39
3082;BME280;1551;51.046;7.010;2022-08-11T15:18:01;101204.75;;;35.27;21.02
3082;BME280;1551;51.046;7.010;2022-08-11T15:20:52;101205.44;;;35.29;21.26
3082;BME280;1551;51.046;7.010;2022-08-11T15:23:59;101205.69;;;35.10;20.78
3082;BME280;1551;51.046;7.010;2022-08-11T15:27:18;101205.69;;;35.10;20.43
3082;BME280;1551;51.046;7.010;2022-08-11T15:30:26;101195.25;;;35.16;20.47
3082;BME280;1551;51.046;7.010;2022-08-11T15:33:36;101188.66;;;34.95;20.75
3082;BME280;1551;51.046;7.010;2022-08-11T15:36:47;101179.34;;;34.91;20.72
3082;BME280;1551;51.046;7.010;2022-08-11T15:40:07;101176.94;;;34.80;21.61
3082;BME280;1551;51.046;7.010;2022-08-11T15:43:22;101173.00;;;34.84;21.89
3082;BME280;1551;51.046;7.010;2022-08-11T15:46:41;101172.38;;;34.98;21.44
3082;BME280;1551;51.046;7.010;2022-08-11T15:49:38;101170.88;;;34.95;21.13
3082;BME280;1551;51.046;7.010;2022-08-11T15:52:32;101168.00;;;34.89;21.73
3082;BME280;1551;51.046;7.010;2022-08-11T15:55:22;101163.31;;;34.75;21.65
3082;BME280;1551;51.046;7.010;2022-08-11T15:58:13;101168.22;;;34.62;22.01
3082;BME280;1551;51.046;7.010;2022-08-11T16:01:22;101158.22;;;34.55;21.87
3082;BME280;1551;51.046;7.010;2022-08-11T16:04:30;101152.94;;;34.38;22.11
3082;BME280;1551;51.046;7.010;2022-08-11T16:07:23;101153.19;;;34.01;23.08
3082;BME280;1551;51.046;7.010;2022-08-11T16:10:16;101148.31;;;34.14;22.20
3082;BME280;1551;51.046;7.010;2022-08-11T16:13:11;101144.31;;;34.10;23.20
3082;BME280;1551;51.046;7.010;2022-08-11T16:16:03;101144.47;;;33.91;23.23
3082;BME280;1551;51.046;7.010;2022-08-11T16:19:03;101137.41;;;33.82;22.36
3082;BME280;1551;51.046;7.010;2022-08-11T16:21:56;101138.53;;;33.97;22.72
3082;BME280;1551;51.046;7.010;2022-08-11T16:24:47;101133.84;;;34.09;21.97
3082;BME280;1551;51.046;7.010;2022-08-11T16:27:40;101136.69;;;33.98;22.91
3082;BME280;1551;51.046;7.010;2022-08-11T16:30:33;101134.38;;;33.95;22.84
3082;BME280;1551;51.046;7.010;2022-08-11T16:33:23;101136.75;;;33.80;22.52
3082;BME280;1551;51.046;7.010;2022-08-11T16:36:13;101129.75;;;33.79;22.25
3082;BME280;1551;51.046;7.010;2022-08-11T16:39:22;101136.28;;;33.84;22.55
3082;BME280;1551;51.046;7.010;2022-08-11T16:42:12;101136.97;;;33.86;21.82
3082;BME280;1551;51.046;7.010;2022-08-11T16:45:21;101130.13;;;33.84;21.47
3082;BME280;1551;51.046;7.010;2022-08-11T16:48:33;101127.34;;;33.85;21.45
3082;BME280;1551;51.046;7.010;2022-08-11T16:51:23;101128.31;;;33.84;21.58
3082;BME280;1551;51.046;7.010;2022-08-11T16:54:13;101129.25;;;33.58;22.57
3082;BME280;1551;51.046;7.010;2022-08-11T16:57:08;101125.16;;;33.46;22.50
3082;BME280;1551;51.046;7.010;2022-08-11T17:00:17;101129.53;;;33.37;23.06
3082;BME280;1551;51.046;7.010;2022-08-11T17:03:07;101131.97;;;33.31;22.36
3082;BME280;1551;51.046;7.010;2022-08-11T17:06:15;101133.38;;;33.25;22.11
3082;BME280;1551;51.046;7.010;2022-08-11T17:09:37;101110.88;;;33.11;22.86
3082;BME280;1551;51.046;7.010;2022-08-11T17:12:47;101123.00;;;33.14;22.93
3082;BME280;1551;51.046;7.010;2022-08-11T17:16:01;101121.88;;;33.16;22.13
3082;BME280;1551;51.046;7.010;2022-08-11T17:19:05;101118.81;;;33.11;22.29
3082;BME280;1551;51.046;7.010;2022-08-11T17:21:58;101117.91;;;33.03;22.99
3082;BME280;1551;51.046;7.010;2022-08-11T17:25:07;101119.56;;;33.04;23.33
3082;BME280;1551;51.046;7.010;2022-08-11T17:27:58;101105.81;;;32.91;23.44
3082;BME280;1551;51.046;7.010;2022-08-11T17:30:48;101111.84;;;32.83;23.08
3082;BME280;1551;51.046;7.010;2022-08-11T17:33:57;101112.59;;;32.76;23.77
3082;BME280;1551;51.046;7.010;2022-08-11T17:37:07;101112.94;;;32.63;24.19
3082;BME280;1551;51.046;7.010;2022-08-11T17:39:57;101109.06;;;32.57;24.62
3082;BME280;1551;51.046;7.010;2022-08-11T17:42:48;101118.34;;;32.25;25.18
3082;BME280;1551;51.046;7.010;2022-08-11T17:45:57;101105.28;;;32.14;25.36
3082;BME280;1551;51.046;7.010;2022-08-11T17:49:07;101112.00;;;32.08;25.79
3082;BME280;1551;51.046;7.010;2022-08-11T17:51:57;101112.81;;;32.09;25.58
3082;BME280;1551;51.046;7.010;2022-08-11T17:55:05;101117.88;;;32.02;25.95
3082;BME280;1551;51.046;7.010;2022-08-11T17:58:15;101109.22;;;31.90;26.21
3082;BME280;1551;51.046;7.010;2022-08-11T18:01:24;101115.31;;;31.91;25.76
3082;BME280;1551;51.046;7.010;2022-08-11T18:04:16;101115.75;;;31.86;26.14
3082;BME280;1551;51.046;7.010;2022-08-11T18:07:06;101120.09;;;31.68;26.18
3082;BME280;1551;51.046;7.010;2022-08-11T18:10:15;101115.25;;;31.54;26.54
3082;BME280;1551;51.046;7.010;2022-08-11T18:13:25;101118.03;;;31.53;26.51
3082;BME280;1551;51.046;7.010;2022-08-11T18:16:34;101121.59;;;31.42;26.74
3082;BME280;1551;51.046;7.010;2022-08-11T18:19:42;101125.50;;;31.28;26.56
3082;BME280;1551;51.046;7.010;2022-08-11T18:22:51;101127.44;;;31.17;26.99
3082;BME280;1551;51.046;7.010;2022-08-11T18:26:02;101132.84;;;31.06;27.43
3082;BME280;1551;51.046;7.010;2022-08-11T18:29:12;101135.63;;;30.95;27.34
3082;BME280;1551;51.046;7.010;2022-08-11T18:32:25;101133.19;;;30.82;27.57
3082;BME280;1551;51.046;7.010;2022-08-11T18:35:34;101134.00;;;30.73;27.79
3082;BME280;1551;51.046;7.010;2022-08-11T18:38:46;101136.59;;;30.64;28.77
3082;BME280;1551;51.046;7.010;2022-08-11T18:41:57;101135.19;;;30.59;28.13
3082;BME280;1551;51.046;7.010;2022-08-11T18:45:10;101135.16;;;30.50;28.55
3082;BME280;1551;51.046;7.010;2022-08-11T18:48:21;101132.13;;;30.34;28.75
3082;BME280;1551;51.046;7.010;2022-08-11T18:51:31;101137.06;;;30.27;28.65
3082;BME280;1551;51.046;7.010;2022-08-11T18:54:42;101138.00;;;30.17;28.76
3082;BME280;1551;51.046;7.010;2022-08-11T18:57:50;101138.78;;;30.08;29.17
3082;BME280;1551;51.046;7.010;2022-08-11T19:01:01;101143.59;;;30.03;29.28
3082;BME280;1551;51.046;7.010;2022-08-11T19:04:11;101146.31;;;29.91;29.67
3082;BME280;1551;51.046;7.010;2022-08-11T19:07:21;101146.94;;;29.84;29.75
3082;BME280;1551;51.046;7.010;2022-08-11T19:10:30;101155.25;;;29.68;30.50